Time;durP1;ratioP1;P1;durP2;ratioP2;P2;SDS_P1;SDS_P2;PMS_P1;PMS_P2;Temp;Humidity;BMP_temperature;BMP_pressure;BME280_temperature;BME280_humidity;BME280_pressure;Samples;Min_cycle;Max_cycle;Signal;HPM_P1;HPM_P2
2022/02/05 00:07:19;;;;;;;6.47;2.03;;;5.00;99.90;;;;;;6672835;88;20257;-76
2022/02/05 00:48:18;;;;;;;5.10;2.42;;;4.10;99.90;;;;;;6666292;89;20200;-76
2022/02/05 00:58:19;;;;;;;6.05;2.00;;;4.10;99.90;;;;;;6667141;88;20669;-76
2022/02/05 01:08:20;;;;;;;3.95;1.87;;;4.00;99.90;;;;;;6666157;89;20291;-77
2022/02/05 01:18:22;;;;;;;6.60;2.08;;;3.90;99.90;;;;;;6666782;89;20208;-75
2022/02/05 01:28:29;;;;;;;4.50;1.48;;;4.00;99.90;;;;;;6661287;89;20638;-76
2022/02/05 02:30:01;;;;;;;8.13;1.87;;;3.60;99.90;;;;;;6650531;88;20756;-76
2022/02/05 02:40:13;;;;;;;8.38;2.20;;;3.60;99.90;;;;;;6664102;89;20707;-76
2022/02/05 02:50:32;;;;;;;5.62;1.70;;;3.60;99.90;;;;;;6668707;88;20191;-76
2022/02/05 03:00:33;;;;;;;6.85;1.70;;;3.50;99.90;;;;;;6669618;89;20200;-76
2022/02/05 03:10:34;;;;;;;6.55;1.70;;;3.40;99.90;;;;;;6668760;89;20271;-76
2022/02/05 03:20:34;;;;;;;8.45;1.70;;;3.40;99.90;;;;;;6665374;89;20876;-76
2022/02/05 03:30:35;;;;;;;6.07;1.77;;;3.50;99.90;;;;;;6664497;88;20219;-76
2022/02/05 03:40:35;;;;;;;8.63;2.00;;;3.40;99.90;;;;;;6664283;89;20206;-76
2022/02/05 03:50:36;;;;;;;7.75;2.03;;;3.40;99.90;;;;;;6667699;89;20209;-76
2022/02/05 04:00:37;;;;;;;8.60;2.00;;;3.50;99.90;;;;;;6665972;89;20543;-77
2022/02/05 04:10:46;;;;;;;9.32;2.08;;;3.50;99.90;;;;;;6674499;88;20196;-76
2022/02/05 04:20:46;;;;;;;10.52;2.33;;;3.40;99.90;;;;;;6671751;89;20325;-76
2022/02/05 04:30:47;;;;;;;7.28;2.50;;;3.30;99.90;;;;;;6672931;88;20191;-76
2022/02/05 04:41:06;;;;;;;8.45;2.17;;;3.30;99.90;;;;;;6664250;88;20253;-77
2022/02/05 04:51:40;;;;;;;8.73;2.58;;;3.30;99.90;;;;;;6668748;88;20561;-77
2022/02/05 05:12:53;;;;;;;9.57;2.20;;;3.30;99.90;;;;;;6739474;87;20237;-75
2022/02/05 05:22:18;;;;;;;9.35;2.45;;;3.30;99.90;;;;;;6766716;87;20176;-75
2022/02/05 05:32:19;;;;;;;10.52;2.30;;;3.20;99.90;;;;;;6762434;87;20187;-75
2022/02/05 05:42:24;;;;;;;7.25;2.30;;;3.30;99.90;;;;;;6774253;87;20179;-75
2022/02/05 05:52:25;;;;;;;8.27;2.70;;;3.20;99.90;;;;;;6766949;87;20713;-75
2022/02/05 06:02:26;;;;;;;11.30;2.40;;;3.20;99.90;;;;;;6769418;87;20207;-73
2022/02/05 06:12:26;;;;;;;5.60;1.98;;;3.20;99.90;;;;;;6779869;87;20242;-74
2022/02/05 06:22:27;;;;;;;9.90;2.83;;;3.10;99.90;;;;;;6770639;87;20711;-75
2022/02/05 06:32:27;;;;;;;6.07;2.33;;;3.30;99.90;;;;;;6762099;87;20237;-75
2022/02/05 06:42:28;;;;;;;8.68;1.90;;;3.40;99.90;;;;;;6772764;87;20214;-75
2022/02/05 06:52:28;;;;;;;7.60;2.15;;;3.30;99.90;;;;;;6776620;87;20183;-73
2022/02/05 07:02:29;;;;;;;6.57;2.05;;;3.30;99.90;;;;;;6783266;87;20243;-75
2022/02/05 07:12:31;;;;;;;8.68;1.90;;;3.30;99.90;;;;;;6776449;87;20199;-75
2022/02/05 07:22:41;;;;;;;7.28;2.62;;;3.40;99.90;;;;;;6777405;87;20184;-75
2022/02/05 07:32:42;;;;;;;8.27;2.00;;;3.40;99.90;;;;;;6772257;87;20168;-76
2022/02/05 07:42:42;;;;;;;8.57;2.15;;;3.40;99.90;;;;;;6779953;87;20250;-75
2022/02/05 07:52:43;;;;;;;9.50;2.15;;;3.40;99.90;;;;;;6779349;87;20215;-74
2022/02/05 08:02:44;;;;;;;6.97;2.28;;;3.60;99.90;;;;;;6772756;87;20311;-75
2022/02/05 08:12:50;;;;;;;7.65;2.10;;;3.70;99.90;;;;;;6770018;87;20204;-74
2022/02/05 08:22:51;;;;;;;;;;;4.00;99.90;;;;;;6770115;87;20187;-74
2022/02/05 08:32:51;;;;;;;9.88;2.37;;;4.30;99.90;;;;;;6770674;87;20063;-72
2022/02/05 08:42:52;;;;;;;9.63;2.37;;;4.80;99.90;;;;;;6775321;87;20197;-75
2022/02/05 08:52:55;;;;;;;5.25;1.95;;;5.40;99.90;;;;;;6778826;87;20260;-73
2022/02/05 09:03:00;;;;;;;8.30;1.92;;;5.90;99.90;;;;;;6760522;87;20180;-72
2022/02/05 09:13:35;;;;;;;7.85;1.83;;;5.90;99.90;;;;;;6774683;87;20368;-76
2022/02/05 09:23:38;;;;;;;7.15;1.90;;;6.40;99.90;;;;;;6770614;87;20240;-74
2022/02/05 09:33:39;;;;;;;7.00;2.10;;;6.90;99.90;;;;;;6768598;87;20237;-74
2022/02/05 09:43:40;;;;;;;4.65;1.95;;;7.40;99.90;;;;;;6757011;87;20312;-73
2022/02/05 09:53:49;;;;;;;5.55;1.80;;;7.60;99.90;;;;;;6763067;87;20180;-74
2022/02/05 10:03:51;;;;;;;5.28;1.40;;;8.10;99.90;;;;;;6762819;87;20213;-73
2022/02/05 10:13:53;;;;;;;5.90;1.92;;;8.20;99.90;;;;;;6765501;87;20277;-77
2022/02/05 10:23:56;;;;;;;4.40;1.60;;;8.30;99.90;;;;;;6764823;87;20175;-72
2022/02/05 10:34:10;;;;;;;5.72;1.80;;;8.50;99.90;;;;;;6761274;87;20747;-74
2022/02/05 10:44:19;;;;;;;5.03;1.62;;;7.90;99.90;;;;;;6770708;87;20297;-74
2022/02/05 10:54:31;;;;;;;3.90;1.30;;;8.00;99.90;;;;;;6766362;87;20266;-72
2022/02/05 11:24:58;;;;;;;3.90;0.90;;;8.50;99.90;;;;;;6764539;87;21013;-73
2022/02/05 11:35:05;;;;;;;4.25;0.90;;;8.20;99.90;;;;;;6765025;87;20972;-73
2022/02/05 11:45:24;;;;;;;8.18;2.30;;;7.80;99.90;;;;;;6766299;87;20253;-75
2022/02/05 11:55:27;;;;;;;5.12;0.77;;;8.80;99.90;;;;;;6766128;87;20224;-75
2022/02/05 12:05:37;;;;;;;4.68;0.68;;;8.90;99.90;;;;;;6769521;87;20669;-74
2022/02/05 12:15:37;;;;;;;3.00;0.70;;;8.40;99.90;;;;;;6766117;87;20769;-74
2022/02/05 12:25:57;;;;;;;5.82;1.95;;;9.00;99.90;;;;;;6763628;87;20231;-74
2022/02/05 12:35:57;;;;;;;3.12;0.90;;;8.70;99.90;;;;;;6762677;87;22029;-75
2022/02/05 12:46:09;;;;;;;3.78;1.20;;;9.50;99.90;;;;;;6759478;87;20290;-74
2022/02/05 12:56:17;;;;;;;3.42;0.80;;;10.60;99.90;;;;;;6760083;87;20198;-73
2022/02/05 13:06:19;;;;;;;3.42;0.80;;;10.30;99.60;;;;;;6766687;87;20223;-74
2022/02/05 13:16:20;;;;;;;2.03;0.60;;;10.50;98.00;;;;;;6772622;87;20229;-74
2022/02/05 13:36:47;;;;;;;7.27;0.77;;;11.60;95.30;;;;;;6766345;87;20248;-74
2022/02/05 13:47:05;;;;;;;5.03;0.70;;;10.70;94.90;;;;;;6762780;87;20594;-74
2022/02/05 13:57:06;;;;;;;2.60;0.95;;;10.80;95.20;;;;;;6767771;87;20506;-75
2022/02/05 14:07:07;;;;;;;3.37;0.68;;;11.30;94.10;;;;;;6768556;87;20223;-74
2022/02/05 14:17:18;;;;;;;3.40;0.80;;;10.80;93.30;;;;;;6766672;87;20260;-74
2022/02/05 14:27:28;;;;;;;4.65;0.77;;;10.90;93.40;;;;;;6750847;88;20226;-74
2022/02/05 14:47:48;;;;;;;1.80;0.68;;;11.40;92.30;;;;;;6767626;87;20191;-74
2022/02/05 14:57:49;;;;;;;3.22;0.90;;;10.60;92.50;;;;;;6767720;87;20194;-75
2022/02/05 15:07:50;;;;;;;3.10;0.75;;;10.50;92.70;;;;;;6767355;87;20181;-74
2022/02/05 15:17:50;;;;;;;3.55;0.82;;;9.90;93.50;;;;;;6768396;87;20875;-74
2022/02/05 15:27:51;;;;;;;4.93;0.95;;;9.20;95.40;;;;;;6765385;87;20207;-74
2022/02/05 15:37:51;;;;;;;4.87;1.00;;;9.00;97.00;;;;;;6768543;87;20248;-75
2022/02/05 15:47:52;;;;;;;4.20;0.83;;;8.70;97.70;;;;;;6763740;87;20522;-74
2022/02/05 15:58:03;;;;;;;3.08;0.82;;;8.40;98.40;;;;;;6767958;87;20488;-74
2022/02/05 16:08:04;;;;;;;6.68;1.10;;;7.90;98.90;;;;;;6770230;87;20208;-75
2022/02/05 16:18:04;;;;;;;3.78;0.90;;;7.70;99.90;;;;;;6773580;87;20192;-75
2022/02/05 16:28:05;;;;;;;4.05;1.10;;;7.40;99.90;;;;;;6773704;87;20183;-76
2022/02/05 16:38:06;;;;;;;3.00;0.75;;;7.00;99.90;;;;;;6769831;87;20711;-76
2022/02/05 16:48:06;;;;;;;7.15;1.10;;;6.80;99.90;;;;;;6772402;87;20621;-75
2022/02/05 16:58:08;;;;;;;2.57;1.03;;;6.80;99.90;;;;;;6772698;87;20211;-73
2022/02/05 17:08:10;;;;;;;4.47;1.30;;;6.60;99.90;;;;;;6766014;87;20520;-74
2022/02/05 17:28:14;;;;;;;5.32;1.50;;;6.10;99.90;;;;;;6763353;87;20367;-75
2022/02/05 17:38:20;;;;;;;8.60;1.55;;;5.90;99.90;;;;;;6767070;87;20294;-76
2022/02/05 17:48:21;;;;;;;3.97;1.17;;;5.90;99.90;;;;;;6770161;87;20305;-73
2022/02/05 17:58:22;;;;;;;4.87;1.02;;;5.70;99.90;;;;;;6767513;87;20684;-74
2022/02/05 18:18:25;;;;;;;8.18;1.55;;;5.50;99.90;;;;;;6765751;87;20609;-73
2022/02/05 18:28:25;;;;;;;6.15;1.35;;;5.60;99.90;;;;;;6760491;87;20244;-73
2022/02/05 18:38:26;;;;;;;7.82;1.50;;;5.60;99.90;;;;;;6757953;87;20304;-73
2022/02/05 18:48:27;;;;;;;4.10;1.35;;;5.50;99.90;;;;;;6761498;87;20207;-73
2022/02/05 18:58:28;;;;;;;5.07;1.20;;;5.60;99.90;;;;;;6762853;87;20231;-76
2022/02/05 19:18:48;;;;;;;4.80;1.02;;;5.90;99.90;;;;;;6761758;87;20286;-72
2022/02/05 19:28:49;;;;;;;7.20;1.20;;;6.20;99.90;;;;;;6757993;87;20221;-72
2022/02/05 19:38:49;;;;;;;3.70;0.73;;;6.40;99.90;;;;;;6765020;87;20691;-73
2022/02/05 19:48:50;;;;;;;6.43;1.05;;;6.40;99.90;;;;;;6769849;87;20228;-72
2022/02/05 19:58:51;;;;;;;6.05;1.15;;;6.50;99.90;;;;;;6760944;87;21126;-73
2022/02/05 20:08:52;;;;;;;4.65;1.40;;;6.60;99.90;;;;;;6760229;87;20308;-75
2022/02/05 20:18:52;;;;;;;3.92;1.00;;;6.70;99.90;;;;;;6763578;87;20578;-75
2022/02/05 20:28:54;;;;;;;7.60;1.02;;;6.80;99.90;;;;;;6762191;87;20310;-74
2022/02/05 20:38:55;;;;;;;4.78;1.10;;;6.80;99.90;;;;;;6770193;87;20221;-75
2022/02/05 20:48:56;;;;;;;3.87;0.88;;;7.00;99.90;;;;;;6773302;87;20188;-75
2022/02/05 20:58:59;;;;;;;2.65;0.85;;;7.10;99.90;;;;;;6774492;87;20187;-75
2022/02/05 21:09:05;;;;;;;4.03;0.95;;;7.20;99.90;;;;;;6778216;87;20359;-75
2022/02/05 21:19:06;;;;;;;4.60;0.80;;;7.20;99.90;;;;;;6774793;87;21018;-76
2022/02/05 21:29:11;;;;;;;1.85;0.70;;;7.30;99.90;;;;;;6773397;87;20324;-76
2022/02/05 21:39:12;;;;;;;2.40;0.50;;;7.30;99.90;;;;;;6773507;87;20183;-75
2022/02/05 21:49:14;;;;;;;10.93;1.63;;;7.30;99.90;;;;;;6766966;87;20223;-75
2022/02/05 21:59:14;;;;;;;6.05;1.05;;;7.30;99.90;;;;;;6772561;87;20641;-75
2022/02/05 22:09:15;;;;;;;4.00;1.10;;;7.30;99.90;;;;;;6769745;87;20187;-76
2022/02/05 22:19:15;;;;;;;2.67;0.75;;;7.20;99.90;;;;;;6775763;87;20636;-75
2022/02/05 22:29:16;;;;;;;6.37;1.08;;;7.20;99.90;;;;;;6775718;87;20223;-75
2022/02/05 22:39:17;;;;;;;4.80;1.12;;;7.00;99.90;;;;;;6775875;87;20286;-75
2022/02/05 22:49:18;;;;;;;6.30;1.30;;;7.10;99.90;;;;;;6769359;87;20662;-75
2022/02/05 22:59:19;;;;;;;7.12;1.23;;;7.10;99.90;;;;;;6772250;87;20241;-75
2022/02/05 23:09:24;;;;;;;5.00;1.20;;;7.20;99.90;;;;;;6764627;87;20611;-75
2022/02/05 23:50:23;;;;;;;3.80;1.30;;;7.20;99.90;;;;;;6765512;87;20274;-75
